sensor_id;sensor_type;location;lat;lon;timestamp;P1;durP1;ratioP1;P2;durP2;ratioP2
77018;SDS011;66044;53.142;17.962;2023-05-02T00:00:15;13.90;;;4.00;;
77018;SDS011;66044;53.142;17.962;2023-05-02T00:03:03;11.10;;;3.50;;
77018;SDS011;66044;53.142;17.962;2023-05-02T00:05:30;9.50;;;3.40;;
77018;SDS011;66044;53.142;17.962;2023-05-02T00:07:57;11.40;;;4.30;;
77018;SDS011;66044;53.142;17.962;2023-05-02T00:10:23;8.70;;;3.40;;
77018;SDS011;66044;53.142;17.962;2023-05-02T00:12:50;9.20;;;3.70;;
77018;SDS011;66044;53.142;17.962;2023-05-02T00:15:16;10.80;;;4.30;;
77018;SDS011;66044;53.142;17.962;2023-05-02T00:17:42;9.80;;;3.80;;
77018;SDS011;66044;53.142;17.962;2023-05-02T00:20:09;11.70;;;5.40;;
77018;SDS011;66044;53.142;17.962;2023-05-02T00:22:37;14.40;;;6.00;;
77018;SDS011;66044;53.142;17.962;2023-05-02T00:25:04;17.00;;;7.00;;
77018;SDS011;66044;53.142;17.962;2023-05-02T00:27:31;14.90;;;6.70;;
77018;SDS011;66044;53.142;17.962;2023-05-02T00:29:58;12.90;;;5.90;;
77018;SDS011;66044;53.142;17.962;2023-05-02T00:32:25;11.40;;;4.50;;
77018;SDS011;66044;53.142;17.962;2023-05-02T00:34:53;9.40;;;3.60;;
77018;SDS011;66044;53.142;17.962;2023-05-02T00:37:19;10.70;;;4.60;;
77018;SDS011;66044;53.142;17.962;2023-05-02T00:39:46;14.20;;;5.80;;
77018;SDS011;66044;53.142;17.962;2023-05-02T00:42:13;13.90;;;5.90;;
77018;SDS011;66044;53.142;17.962;2023-05-02T00:44:39;14.20;;;6.60;;
77018;SDS011;66044;53.142;17.962;2023-05-02T00:47:06;15.10;;;6.00;;
77018;SDS011;66044;53.142;17.962;2023-05-02T00:49:32;13.50;;;5.70;;
77018;SDS011;66044;53.142;17.962;2023-05-02T00:51:59;14.00;;;6.30;;
77018;SDS011;66044;53.142;17.962;2023-05-02T00:54:25;15.20;;;6.80;;
77018;SDS011;66044;53.142;17.962;2023-05-02T00:56:52;16.90;;;6.60;;
77018;SDS011;66044;53.142;17.962;2023-05-02T00:59:19;14.40;;;6.70;;
77018;SDS011;66044;53.142;17.962;2023-05-02T01:01:49;14.30;;;6.30;;
77018;SDS011;66044;53.142;17.962;2023-05-02T01:04:29;14.00;;;5.40;;
77018;SDS011;66044;53.142;17.962;2023-05-02T01:09:50;12.30;;;5.00;;
77018;SDS011;66044;53.142;17.962;2023-05-02T01:15:09;10.80;;;4.60;;
77018;SDS011;66044;53.142;17.962;2023-05-02T01:17:40;13.30;;;5.50;;
77018;SDS011;66044;53.142;17.962;2023-05-02T01:20:11;13.10;;;5.00;;
77018;SDS011;66044;53.142;17.962;2023-05-02T01:22:41;10.40;;;4.60;;
77018;SDS011;66044;53.142;17.962;2023-05-02T01:28:06;14.10;;;5.40;;
77018;SDS011;66044;53.142;17.962;2023-05-02T01:30:42;9.00;;;3.90;;
77018;SDS011;66044;53.142;17.962;2023-05-02T01:33:12;9.80;;;3.90;;
77018;SDS011;66044;53.142;17.962;2023-05-02T01:35:42;7.20;;;3.30;;
77018;SDS011;66044;53.142;17.962;2023-05-02T01:38:14;10.30;;;4.10;;
77018;SDS011;66044;53.142;17.962;2023-05-02T01:40:43;8.30;;;3.60;;
77018;SDS011;66044;53.142;17.962;2023-05-02T01:43:12;10.80;;;3.90;;
77018;SDS011;66044;53.142;17.962;2023-05-02T01:45:41;8.80;;;3.10;;
77018;SDS011;66044;53.142;17.962;2023-05-02T01:48:10;10.40;;;4.30;;
77018;SDS011;66044;53.142;17.962;2023-05-02T01:50:40;9.50;;;3.60;;
77018;SDS011;66044;53.142;17.962;2023-05-02T01:53:09;10.30;;;4.20;;
77018;SDS011;66044;53.142;17.962;2023-05-02T01:55:39;9.40;;;4.20;;
77018;SDS011;66044;53.142;17.962;2023-05-02T01:58:09;9.50;;;3.90;;
77018;SDS011;66044;53.142;17.962;2023-05-02T02:00:37;10.30;;;4.30;;
77018;SDS011;66044;53.142;17.962;2023-05-02T02:03:05;11.00;;;4.40;;
77018;SDS011;66044;53.142;17.962;2023-05-02T02:05:34;9.50;;;3.40;;
77018;SDS011;66044;53.142;17.962;2023-05-02T02:08:03;9.90;;;3.70;;
77018;SDS011;66044;53.142;17.962;2023-05-02T02:10:31;10.50;;;3.90;;
77018;SDS011;66044;53.142;17.962;2023-05-02T02:13:06;12.10;;;4.80;;
77018;SDS011;66044;53.142;17.962;2023-05-02T02:15:40;11.30;;;3.80;;
77018;SDS011;66044;53.142;17.962;2023-05-02T02:18:09;11.50;;;4.60;;
77018;SDS011;66044;53.142;17.962;2023-05-02T02:20:39;12.10;;;4.40;;
77018;SDS011;66044;53.142;17.962;2023-05-02T02:23:09;12.00;;;5.10;;
77018;SDS011;66044;53.142;17.962;2023-05-02T02:25:37;16.40;;;6.00;;
77018;SDS011;66044;53.142;17.962;2023-05-02T02:28:05;12.40;;;5.60;;
77018;SDS011;66044;53.142;17.962;2023-05-02T02:30:32;11.80;;;5.30;;
77018;SDS011;66044;53.142;17.962;2023-05-02T02:32:59;13.50;;;5.80;;
77018;SDS011;66044;53.142;17.962;2023-05-02T02:35:28;14.30;;;6.00;;
77018;SDS011;66044;53.142;17.962;2023-05-02T02:40:45;16.30;;;5.20;;
77018;SDS011;66044;53.142;17.962;2023-05-02T02:43:19;15.10;;;5.30;;
77018;SDS011;66044;53.142;17.962;2023-05-02T02:54:12;12.10;;;4.70;;
77018;SDS011;66044;53.142;17.962;2023-05-02T02:57:06;11.20;;;4.50;;
77018;SDS011;66044;53.142;17.962;2023-05-02T02:59:37;9.30;;;3.70;;
77018;SDS011;66044;53.142;17.962;2023-05-02T03:02:08;14.00;;;6.10;;
77018;SDS011;66044;53.142;17.962;2023-05-02T03:04:39;15.40;;;6.30;;
77018;SDS011;66044;53.142;17.962;2023-05-02T03:07:07;12.30;;;5.10;;
77018;SDS011;66044;53.142;17.962;2023-05-02T03:12:07;13.00;;;5.30;;
77018;SDS011;66044;53.142;17.962;2023-05-02T03:14:35;13.00;;;5.50;;
77018;SDS011;66044;53.142;17.962;2023-05-02T03:17:02;12.40;;;5.40;;
77018;SDS011;66044;53.142;17.962;2023-05-02T03:19:28;13.40;;;5.40;;
77018;SDS011;66044;53.142;17.962;2023-05-02T03:21:55;14.30;;;5.70;;
77018;SDS011;66044;53.142;17.962;2023-05-02T03:24:22;14.90;;;6.20;;
77018;SDS011;66044;53.142;17.962;2023-05-02T03:26:49;14.40;;;6.20;;
77018;SDS011;66044;53.142;17.962;2023-05-02T03:29:25;14.40;;;5.90;;
77018;SDS011;66044;53.142;17.962;2023-05-02T03:31:52;10.60;;;4.70;;
77018;SDS011;66044;53.142;17.962;2023-05-02T03:34:18;11.20;;;5.30;;
77018;SDS011;66044;53.142;17.962;2023-05-02T03:36:47;11.00;;;4.40;;
77018;SDS011;66044;53.142;17.962;2023-05-02T03:39:14;12.50;;;5.00;;
77018;SDS011;66044;53.142;17.962;2023-05-02T03:41:40;11.20;;;4.60;;
77018;SDS011;66044;53.142;17.962;2023-05-02T03:44:08;10.40;;;4.40;;
77018;SDS011;66044;53.142;17.962;2023-05-02T03:46:35;12.40;;;4.70;;
77018;SDS011;66044;53.142;17.962;2023-05-02T03:49:02;14.10;;;5.10;;
77018;SDS011;66044;53.142;17.962;2023-05-02T03:51:28;12.40;;;4.60;;
77018;SDS011;66044;53.142;17.962;2023-05-02T03:53:55;11.20;;;5.10;;
77018;SDS011;66044;53.142;17.962;2023-05-02T03:56:21;13.00;;;5.00;;
77018;SDS011;66044;53.142;17.962;2023-05-02T03:58:48;14.40;;;5.50;;
77018;SDS011;66044;53.142;17.962;2023-05-02T04:01:14;16.90;;;5.40;;
77018;SDS011;66044;53.142;17.962;2023-05-02T04:03:42;12.10;;;4.80;;
77018;SDS011;66044;53.142;17.962;2023-05-02T04:06:08;12.90;;;5.20;;
77018;SDS011;66044;53.142;17.962;2023-05-02T04:08:35;11.20;;;4.70;;
77018;SDS011;66044;53.142;17.962;2023-05-02T04:11:02;11.90;;;4.70;;
77018;SDS011;66044;53.142;17.962;2023-05-02T04:13:29;10.20;;;4.10;;
77018;SDS011;66044;53.142;17.962;2023-05-02T04:15:55;10.40;;;4.10;;
77018;SDS011;66044;53.142;17.962;2023-05-02T04:18:22;12.80;;;4.30;;
77018;SDS011;66044;53.142;17.962;2023-05-02T04:20:49;10.80;;;4.50;;
77018;SDS011;66044;53.142;17.962;2023-05-02T04:23:16;10.30;;;4.90;;
77018;SDS011;66044;53.142;17.962;2023-05-02T04:25:52;10.00;;;4.20;;
77018;SDS011;66044;53.142;17.962;2023-05-02T04:28:20;11.80;;;5.20;;
77018;SDS011;66044;53.142;17.962;2023-05-02T04:30:48;13.70;;;5.40;;
77018;SDS011;66044;53.142;17.962;2023-05-02T04:33:15;11.20;;;4.90;;
77018;SDS011;66044;53.142;17.962;2023-05-02T04:35:43;13.20;;;5.50;;
77018;SDS011;66044;53.142;17.962;2023-05-02T04:38:13;10.90;;;5.10;;
77018;SDS011;66044;53.142;17.962;2023-05-02T04:40:39;14.70;;;5.80;;
77018;SDS011;66044;53.142;17.962;2023-05-02T04:43:07;14.30;;;6.00;;
77018;SDS011;66044;53.142;17.962;2023-05-02T04:45:34;11.50;;;5.30;;
77018;SDS011;66044;53.142;17.962;2023-05-02T04:48:02;13.30;;;6.50;;
77018;SDS011;66044;53.142;17.962;2023-05-02T04:50:29;12.80;;;6.30;;
77018;SDS011;66044;53.142;17.962;2023-05-02T04:52:57;17.30;;;7.50;;
77018;SDS011;66044;53.142;17.962;2023-05-02T04:55:24;10.30;;;5.20;;
77018;SDS011;66044;53.142;17.962;2023-05-02T04:57:50;17.10;;;7.80;;
77018;SDS011;66044;53.142;17.962;2023-05-02T05:00:17;13.70;;;6.90;;
77018;SDS011;66044;53.142;17.962;2023-05-02T05:02:43;18.90;;;7.90;;
77018;SDS011;66044;53.142;17.962;2023-05-02T05:05:10;22.10;;;7.40;;
77018;SDS011;66044;53.142;17.962;2023-05-02T05:07:36;17.90;;;7.30;;
77018;SDS011;66044;53.142;17.962;2023-05-02T05:10:03;17.20;;;5.90;;
77018;SDS011;66044;53.142;17.962;2023-05-02T05:12:30;15.10;;;5.70;;
77018;SDS011;66044;53.142;17.962;2023-05-02T05:14:57;11.80;;;5.20;;
77018;SDS011;66044;53.142;17.962;2023-05-02T05:17:23;12.30;;;5.40;;
77018;SDS011;66044;53.142;17.962;2023-05-02T05:19:50;12.20;;;5.40;;
77018;SDS011;66044;53.142;17.962;2023-05-02T05:22:19;12.40;;;5.80;;
77018;SDS011;66044;53.142;17.962;2023-05-02T05:24:52;15.10;;;7.60;;
77018;SDS011;66044;53.142;17.962;2023-05-02T05:27:19;18.30;;;8.60;;
77018;SDS011;66044;53.142;17.962;2023-05-02T05:29:46;19.80;;;10.00;;
77018;SDS011;66044;53.142;17.962;2023-05-02T05:32:13;19.20;;;9.70;;
77018;SDS011;66044;53.142;17.962;2023-05-02T05:34:40;20.30;;;8.70;;
77018;SDS011;66044;53.142;17.962;2023-05-02T05:37:06;15.40;;;7.50;;
77018;SDS011;66044;53.142;17.962;2023-05-02T05:39:32;11.10;;;5.60;;
77018;SDS011;66044;53.142;17.962;2023-05-02T05:42:00;14.70;;;6.50;;
77018;SDS011;66044;53.142;17.962;2023-05-02T05:44:26;11.30;;;5.70;;
77018;SDS011;66044;53.142;17.962;2023-05-02T05:46:53;14.00;;;6.20;;
77018;SDS011;66044;53.142;17.962;2023-05-02T05:49:19;14.00;;;5.90;;
77018;SDS011;66044;53.142;17.962;2023-05-02T05:51:48;12.60;;;6.20;;
77018;SDS011;66044;53.142;17.962;2023-05-02T05:54:15;12.90;;;5.40;;
77018;SDS011;66044;53.142;17.962;2023-05-02T05:56:44;14.20;;;6.20;;
77018;SDS011;66044;53.142;17.962;2023-05-02T05:59:11;14.70;;;6.80;;
77018;SDS011;66044;53.142;17.962;2023-05-02T06:01:37;12.20;;;5.50;;
77018;SDS011;66044;53.142;17.962;2023-05-02T06:04:04;12.30;;;6.00;;
77018;SDS011;66044;53.142;17.962;2023-05-02T06:06:32;13.40;;;6.50;;
77018;SDS011;66044;53.142;17.962;2023-05-02T06:08:59;14.30;;;5.90;;
77018;SDS011;66044;53.142;17.962;2023-05-02T06:11:26;14.30;;;6.10;;
77018;SDS011;66044;53.142;17.962;2023-05-02T06:13:53;13.60;;;6.00;;
77018;SDS011;66044;53.142;17.962;2023-05-02T06:16:19;15.00;;;6.00;;
77018;SDS011;66044;53.142;17.962;2023-05-02T06:18:46;12.40;;;5.50;;
77018;SDS011;66044;53.142;17.962;2023-05-02T06:21:12;12.10;;;5.70;;
77018;SDS011;66044;53.142;17.962;2023-05-02T06:23:39;12.00;;;5.90;;
77018;SDS011;66044;53.142;17.962;2023-05-02T06:26:06;14.70;;;5.90;;
77018;SDS011;66044;53.142;17.962;2023-05-02T06:28:32;10.00;;;5.30;;
77018;SDS011;66044;53.142;17.962;2023-05-02T06:31:02;11.90;;;5.70;;
77018;SDS011;66044;53.142;17.962;2023-05-02T06:33:31;14.40;;;5.60;;
77018;SDS011;66044;53.142;17.962;2023-05-02T06:35:58;11.10;;;5.20;;
77018;SDS011;66044;53.142;17.962;2023-05-02T06:38:25;10.80;;;5.40;;
77018;SDS011;66044;53.142;17.962;2023-05-02T06:40:51;11.70;;;5.50;;
77018;SDS011;66044;53.142;17.962;2023-05-02T06:43:18;11.80;;;5.60;;
77018;SDS011;66044;53.142;17.962;2023-05-02T06:45:44;10.70;;;5.50;;
77018;SDS011;66044;53.142;17.962;2023-05-02T06:48:11;11.90;;;5.90;;
77018;SDS011;66044;53.142;17.962;2023-05-02T06:50:37;10.50;;;5.60;;
77018;SDS011;66044;53.142;17.962;2023-05-02T06:53:04;12.20;;;5.30;;
77018;SDS011;66044;53.142;17.962;2023-05-02T06:55:31;13.20;;;6.30;;
77018;SDS011;66044;53.142;17.962;2023-05-02T06:57:58;16.10;;;8.20;;
77018;SDS011;66044;53.142;17.962;2023-05-02T07:00:24;15.90;;;8.00;;
77018;SDS011;66044;53.142;17.962;2023-05-02T07:02:51;14.20;;;7.70;;
77018;SDS011;66044;53.142;17.962;2023-05-02T07:05:18;14.50;;;7.30;;
77018;SDS011;66044;53.142;17.962;2023-05-02T07:07:44;13.40;;;7.20;;
77018;SDS011;66044;53.142;17.962;2023-05-02T07:10:11;13.90;;;8.20;;
77018;SDS011;66044;53.142;17.962;2023-05-02T07:12:38;13.00;;;7.20;;
77018;SDS011;66044;53.142;17.962;2023-05-02T07:15:05;12.60;;;6.60;;
77018;SDS011;66044;53.142;17.962;2023-05-02T07:17:32;13.00;;;6.80;;
77018;SDS011;66044;53.142;17.962;2023-05-02T07:19:59;11.90;;;6.20;;
77018;SDS011;66044;53.142;17.962;2023-05-02T07:22:25;10.00;;;5.90;;
77018;SDS011;66044;53.142;17.962;2023-05-02T07:24:59;11.80;;;5.90;;
77018;SDS011;66044;53.142;17.962;2023-05-02T07:27:27;11.40;;;5.80;;
77018;SDS011;66044;53.142;17.962;2023-05-02T07:29:54;10.70;;;5.20;;
77018;SDS011;66044;53.142;17.962;2023-05-02T07:32:20;10.30;;;4.90;;
77018;SDS011;66044;53.142;17.962;2023-05-02T07:34:47;10.30;;;5.40;;
77018;SDS011;66044;53.142;17.962;2023-05-02T07:37:14;10.00;;;4.70;;
77018;SDS011;66044;53.142;17.962;2023-05-02T07:39:40;10.20;;;4.80;;
77018;SDS011;66044;53.142;17.962;2023-05-02T07:42:07;11.40;;;5.50;;
77018;SDS011;66044;53.142;17.962;2023-05-02T07:44:33;11.10;;;4.90;;
77018;SDS011;66044;53.142;17.962;2023-05-02T07:47:01;10.20;;;5.00;;
77018;SDS011;66044;53.142;17.962;2023-05-02T07:49:28;14.40;;;5.40;;
77018;SDS011;66044;53.142;17.962;2023-05-02T07:51:54;10.20;;;4.60;;
77018;SDS011;66044;53.142;17.962;2023-05-02T07:54:21;10.30;;;4.70;;
77018;SDS011;66044;53.142;17.962;2023-05-02T07:56:52;10.30;;;4.80;;
77018;SDS011;66044;53.142;17.962;2023-05-02T07:59:18;11.20;;;5.80;;
77018;SDS011;66044;53.142;17.962;2023-05-02T08:01:45;11.20;;;5.30;;
77018;SDS011;66044;53.142;17.962;2023-05-02T08:04:12;12.90;;;4.70;;
77018;SDS011;66044;53.142;17.962;2023-05-02T08:06:38;10.60;;;4.90;;
77018;SDS011;66044;53.142;17.962;2023-05-02T08:09:05;8.70;;;3.80;;
77018;SDS011;66044;53.142;17.962;2023-05-02T08:11:31;8.80;;;3.50;;
77018;SDS011;66044;53.142;17.962;2023-05-02T08:13:58;8.10;;;3.80;;
77018;SDS011;66044;53.142;17.962;2023-05-02T08:16:24;9.60;;;3.60;;
77018;SDS011;66044;53.142;17.962;2023-05-02T08:18:51;9.50;;;3.60;;
77018;SDS011;66044;53.142;17.962;2023-05-02T08:21:17;7.70;;;3.50;;
77018;SDS011;66044;53.142;17.962;2023-05-02T08:23:44;9.20;;;2.90;;
77018;SDS011;66044;53.142;17.962;2023-05-02T08:26:11;8.60;;;2.60;;
77018;SDS011;66044;53.142;17.962;2023-05-02T08:28:38;7.70;;;2.70;;
77018;SDS011;66044;53.142;17.962;2023-05-02T08:31:04;11.30;;;2.90;;
77018;SDS011;66044;53.142;17.962;2023-05-02T08:33:31;8.70;;;2.70;;
77018;SDS011;66044;53.142;17.962;2023-05-02T08:35:57;11.90;;;4.10;;
77018;SDS011;66044;53.142;17.962;2023-05-02T08:38:24;10.40;;;3.60;;
77018;SDS011;66044;53.142;17.962;2023-05-02T08:40:50;8.20;;;2.40;;
77018;SDS011;66044;53.142;17.962;2023-05-02T08:43:16;8.60;;;2.30;;
77018;SDS011;66044;53.142;17.962;2023-05-02T08:45:43;6.80;;;2.00;;
77018;SDS011;66044;53.142;17.962;2023-05-02T08:48:11;7.20;;;2.10;;
77018;SDS011;66044;53.142;17.962;2023-05-02T08:50:41;11.80;;;3.30;;
77018;SDS011;66044;53.142;17.962;2023-05-02T08:53:11;9.60;;;2.60;;
77018;SDS011;66044;53.142;17.962;2023-05-02T08:55:40;6.80;;;2.00;;
77018;SDS011;66044;53.142;17.962;2023-05-02T08:58:07;5.80;;;1.70;;
77018;SDS011;66044;53.142;17.962;2023-05-02T09:00:38;7.20;;;2.40;;
77018;SDS011;66044;53.142;17.962;2023-05-02T09:03:19;9.10;;;2.40;;
77018;SDS011;66044;53.142;17.962;2023-05-02T09:05:54;6.30;;;2.20;;
77018;SDS011;66044;53.142;17.962;2023-05-02T09:08:30;7.70;;;2.30;;
77018;SDS011;66044;53.142;17.962;2023-05-02T09:10:57;7.90;;;2.40;;
77018;SDS011;66044;53.142;17.962;2023-05-02T09:13:37;6.60;;;2.40;;
77018;SDS011;66044;53.142;17.962;2023-05-02T09:16:06;6.70;;;2.30;;
77018;SDS011;66044;53.142;17.962;2023-05-02T09:18:41;6.80;;;2.30;;
77018;SDS011;66044;53.142;17.962;2023-05-02T09:21:09;7.40;;;2.50;;
77018;SDS011;66044;53.142;17.962;2023-05-02T09:23:38;6.80;;;2.10;;
77018;SDS011;66044;53.142;17.962;2023-05-02T09:28:50;7.40;;;2.20;;
77018;SDS011;66044;53.142;17.962;2023-05-02T09:31:18;6.70;;;2.40;;
77018;SDS011;66044;53.142;17.962;2023-05-02T09:33:51;6.70;;;2.40;;
77018;SDS011;66044;53.142;17.962;2023-05-02T09:36:22;6.20;;;2.10;;
77018;SDS011;66044;53.142;17.962;2023-05-02T09:38:49;6.90;;;2.70;;
77018;SDS011;66044;53.142;17.962;2023-05-02T09:41:16;8.60;;;2.40;;
77018;SDS011;66044;53.142;17.962;2023-05-02T09:43:56;6.50;;;2.50;;
77018;SDS011;66044;53.142;17.962;2023-05-02T09:46:23;6.50;;;2.40;;
77018;SDS011;66044;53.142;17.962;2023-05-02T09:51:23;6.80;;;2.60;;
77018;SDS011;66044;53.142;17.962;2023-05-02T09:53:50;6.70;;;2.20;;
77018;SDS011;66044;53.142;17.962;2023-05-02T09:56:17;6.60;;;2.20;;
77018;SDS011;66044;53.142;17.962;2023-05-02T09:58:44;6.70;;;1.70;;
77018;SDS011;66044;53.142;17.962;2023-05-02T10:01:14;6.30;;;2.20;;
77018;SDS011;66044;53.142;17.962;2023-05-02T10:03:44;5.40;;;1.50;;
77018;SDS011;66044;53.142;17.962;2023-05-02T10:06:14;6.40;;;1.40;;
77018;SDS011;66044;53.142;17.962;2023-05-02T10:08:42;5.30;;;1.80;;
77018;SDS011;66044;53.142;17.962;2023-05-02T10:11:12;6.10;;;1.60;;
77018;SDS011;66044;53.142;17.962;2023-05-02T10:13:40;5.00;;;1.50;;
77018;SDS011;66044;53.142;17.962;2023-05-02T10:16:10;4.90;;;1.50;;
77018;SDS011;66044;53.142;17.962;2023-05-02T10:21:39;5.80;;;1.40;;
77018;SDS011;66044;53.142;17.962;2023-05-02T10:24:08;5.90;;;1.70;;
77018;SDS011;66044;53.142;17.962;2023-05-02T10:26:35;6.50;;;1.60;;
77018;SDS011;66044;53.142;17.962;2023-05-02T10:29:02;6.00;;;1.70;;
77018;SDS011;66044;53.142;17.962;2023-05-02T10:31:31;9.10;;;2.10;;
77018;SDS011;66044;53.142;17.962;2023-05-02T10:34:09;5.50;;;1.80;;
77018;SDS011;66044;53.142;17.962;2023-05-02T10:36:44;7.80;;;2.30;;
77018;SDS011;66044;53.142;17.962;2023-05-02T10:39:11;8.00;;;2.20;;
77018;SDS011;66044;53.142;17.962;2023-05-02T10:41:38;7.20;;;2.40;;
77018;SDS011;66044;53.142;17.962;2023-05-02T10:44:06;9.80;;;2.50;;
77018;SDS011;66044;53.142;17.962;2023-05-02T10:46:37;6.20;;;2.60;;
77018;SDS011;66044;53.142;17.962;2023-05-02T10:49:09;7.20;;;1.90;;
77018;SDS011;66044;53.142;17.962;2023-05-02T10:51:40;8.60;;;2.20;;
77018;SDS011;66044;53.142;17.962;2023-05-02T10:54:17;7.00;;;2.50;;
77018;SDS011;66044;53.142;17.962;2023-05-02T10:59:32;6.70;;;2.30;;
77018;SDS011;66044;53.142;17.962;2023-05-02T11:02:00;10.40;;;2.40;;
77018;SDS011;66044;53.142;17.962;2023-05-02T11:07:35;5.90;;;2.10;;
77018;SDS011;66044;53.142;17.962;2023-05-02T11:12:56;8.00;;;2.70;;
77018;SDS011;66044;53.142;17.962;2023-05-02T11:18:01;7.40;;;2.80;;
77018;SDS011;66044;53.142;17.962;2023-05-02T11:20:32;7.20;;;2.40;;
77018;SDS011;66044;53.142;17.962;2023-05-02T11:25:40;6.30;;;2.20;;
77018;SDS011;66044;53.142;17.962;2023-05-02T11:31:03;6.70;;;2.20;;
77018;SDS011;66044;53.142;17.962;2023-05-02T11:33:31;6.20;;;2.20;;
77018;SDS011;66044;53.142;17.962;2023-05-02T11:35:57;6.90;;;2.00;;
77018;SDS011;66044;53.142;17.962;2023-05-02T11:38:25;6.70;;;2.40;;
77018;SDS011;66044;53.142;17.962;2023-05-02T11:41:00;8.60;;;1.90;;
77018;SDS011;66044;53.142;17.962;2023-05-02T11:43:29;7.00;;;2.30;;
77018;SDS011;66044;53.142;17.962;2023-05-02T11:45:56;6.00;;;1.70;;
77018;SDS011;66044;53.142;17.962;2023-05-02T11:48:24;6.30;;;2.00;;
77018;SDS011;66044;53.142;17.962;2023-05-02T11:50:56;6.10;;;2.10;;
77018;SDS011;66044;53.142;17.962;2023-05-02T11:53:25;7.70;;;1.90;;
77018;SDS011;66044;53.142;17.962;2023-05-02T11:58:28;6.70;;;2.00;;
77018;SDS011;66044;53.142;17.962;2023-05-02T12:00:57;6.50;;;1.90;;
77018;SDS011;66044;53.142;17.962;2023-05-02T12:03:40;6.50;;;2.20;;
77018;SDS011;66044;53.142;17.962;2023-05-02T12:06:08;5.60;;;2.00;;
77018;SDS011;66044;53.142;17.962;2023-05-02T12:08:37;5.00;;;1.60;;
77018;SDS011;66044;53.142;17.962;2023-05-02T12:11:04;5.30;;;1.50;;
77018;SDS011;66044;53.142;17.962;2023-05-02T12:13:32;13.70;;;3.40;;
77018;SDS011;66044;53.142;17.962;2023-05-02T12:15:59;16.70;;;3.40;;
77018;SDS011;66044;53.142;17.962;2023-05-02T12:18:26;9.20;;;1.90;;
77018;SDS011;66044;53.142;17.962;2023-05-02T12:20:54;13.60;;;2.50;;
77018;SDS011;66044;53.142;17.962;2023-05-02T12:23:22;4.80;;;1.60;;
77018;SDS011;66044;53.142;17.962;2023-05-02T12:25:51;7.00;;;2.40;;
77018;SDS011;66044;53.142;17.962;2023-05-02T12:28:18;11.90;;;3.30;;
77018;SDS011;66044;53.142;17.962;2023-05-02T12:30:48;7.90;;;3.40;;
77018;SDS011;66044;53.142;17.962;2023-05-02T12:33:17;9.60;;;3.50;;
77018;SDS011;66044;53.142;17.962;2023-05-02T12:35:44;8.10;;;3.40;;
77018;SDS011;66044;53.142;17.962;2023-05-02T12:38:16;17.60;;;4.50;;
77018;SDS011;66044;53.142;17.962;2023-05-02T12:40:54;8.90;;;3.50;;
77018;SDS011;66044;53.142;17.962;2023-05-02T12:43:23;9.10;;;3.50;;
77018;SDS011;66044;53.142;17.962;2023-05-02T12:45:49;8.70;;;3.30;;
77018;SDS011;66044;53.142;17.962;2023-05-02T12:48:34;9.50;;;3.70;;
77018;SDS011;66044;53.142;17.962;2023-05-02T12:51:00;8.20;;;3.30;;
77018;SDS011;66044;53.142;17.962;2023-05-02T12:53:45;7.90;;;3.10;;
77018;SDS011;66044;53.142;17.962;2023-05-02T12:56:12;7.80;;;3.30;;
77018;SDS011;66044;53.142;17.962;2023-05-02T12:58:39;7.20;;;3.30;;
77018;SDS011;66044;53.142;17.962;2023-05-02T13:01:11;8.10;;;3.10;;
77018;SDS011;66044;53.142;17.962;2023-05-02T13:03:38;7.70;;;3.20;;
77018;SDS011;66044;53.142;17.962;2023-05-02T13:06:06;8.50;;;3.60;;
77018;SDS011;66044;53.142;17.962;2023-05-02T13:08:33;7.90;;;3.70;;
77018;SDS011;66044;53.142;17.962;2023-05-02T13:11:00;8.00;;;3.30;;
77018;SDS011;66044;53.142;17.962;2023-05-02T13:13:28;8.60;;;3.70;;
77018;SDS011;66044;53.142;17.962;2023-05-02T13:15:55;8.20;;;3.80;;
77018;SDS011;66044;53.142;17.962;2023-05-02T13:18:22;7.50;;;3.10;;
77018;SDS011;66044;53.142;17.962;2023-05-02T13:20:49;9.60;;;4.60;;
77018;SDS011;66044;53.142;17.962;2023-05-02T13:23:15;8.20;;;4.10;;
77018;SDS011;66044;53.142;17.962;2023-05-02T13:25:42;7.20;;;3.50;;
77018;SDS011;66044;53.142;17.962;2023-05-02T13:28:08;7.70;;;3.50;;
77018;SDS011;66044;53.142;17.962;2023-05-02T13:30:35;7.50;;;3.60;;
77018;SDS011;66044;53.142;17.962;2023-05-02T13:33:01;8.20;;;3.40;;
77018;SDS011;66044;53.142;17.962;2023-05-02T13:35:28;8.70;;;3.20;;
77018;SDS011;66044;53.142;17.962;2023-05-02T13:37:54;8.40;;;3.70;;
77018;SDS011;66044;53.142;17.962;2023-05-02T13:40:21;8.90;;;3.40;;
77018;SDS011;66044;53.142;17.962;2023-05-02T13:42:47;8.40;;;3.40;;
77018;SDS011;66044;53.142;17.962;2023-05-02T13:45:14;7.50;;;3.40;;
77018;SDS011;66044;53.142;17.962;2023-05-02T13:47:42;7.60;;;3.10;;
77018;SDS011;66044;53.142;17.962;2023-05-02T13:50:09;8.30;;;3.20;;
77018;SDS011;66044;53.142;17.962;2023-05-02T13:52:37;8.00;;;2.80;;
77018;SDS011;66044;53.142;17.962;2023-05-02T13:55:04;6.60;;;2.50;;
77018;SDS011;66044;53.142;17.962;2023-05-02T13:57:32;6.50;;;2.40;;
77018;SDS011;66044;53.142;17.962;2023-05-02T13:59:58;6.20;;;2.50;;
77018;SDS011;66044;53.142;17.962;2023-05-02T14:02:25;6.70;;;2.70;;
77018;SDS011;66044;53.142;17.962;2023-05-02T14:04:52;7.40;;;2.80;;
77018;SDS011;66044;53.142;17.962;2023-05-02T14:07:18;7.20;;;2.60;;
77018;SDS011;66044;53.142;17.962;2023-05-02T14:09:45;8.10;;;3.20;;
77018;SDS011;66044;53.142;17.962;2023-05-02T14:12:11;7.60;;;2.70;;
77018;SDS011;66044;53.142;17.962;2023-05-02T14:14:38;6.40;;;2.20;;
77018;SDS011;66044;53.142;17.962;2023-05-02T14:17:04;5.20;;;1.90;;
77018;SDS011;66044;53.142;17.962;2023-05-02T14:19:31;5.60;;;1.90;;
77018;SDS011;66044;53.142;17.962;2023-05-02T14:21:58;5.10;;;1.80;;
77018;SDS011;66044;53.142;17.962;2023-05-02T14:24:24;5.00;;;1.50;;
77018;SDS011;66044;53.142;17.962;2023-05-02T14:26:51;4.80;;;1.60;;
77018;SDS011;66044;53.142;17.962;2023-05-02T14:29:17;5.80;;;2.00;;
77018;SDS011;66044;53.142;17.962;2023-05-02T14:31:44;7.00;;;2.70;;
77018;SDS011;66044;53.142;17.962;2023-05-02T14:34:11;6.50;;;1.50;;
77018;SDS011;66044;53.142;17.962;2023-05-02T14:36:38;4.90;;;1.40;;
77018;SDS011;66044;53.142;17.962;2023-05-02T14:39:11;5.00;;;1.60;;
77018;SDS011;66044;53.142;17.962;2023-05-02T14:41:37;4.00;;;1.30;;
77018;SDS011;66044;53.142;17.962;2023-05-02T14:44:04;4.40;;;1.40;;
77018;SDS011;66044;53.142;17.962;2023-05-02T14:46:30;4.60;;;1.30;;
77018;SDS011;66044;53.142;17.962;2023-05-02T14:48:57;4.20;;;1.50;;
77018;SDS011;66044;53.142;17.962;2023-05-02T14:51:23;5.30;;;1.30;;
77018;SDS011;66044;53.142;17.962;2023-05-02T14:53:49;4.80;;;1.20;;
77018;SDS011;66044;53.142;17.962;2023-05-02T14:56:16;5.60;;;1.40;;
77018;SDS011;66044;53.142;17.962;2023-05-02T14:58:43;5.00;;;1.50;;
77018;SDS011;66044;53.142;17.962;2023-05-02T15:01:17;4.40;;;1.00;;
77018;SDS011;66044;53.142;17.962;2023-05-02T15:03:51;5.90;;;1.40;;
77018;SDS011;66044;53.142;17.962;2023-05-02T15:06:18;4.60;;;1.30;;
77018;SDS011;66044;53.142;17.962;2023-05-02T15:08:46;5.00;;;1.10;;
77018;SDS011;66044;53.142;17.962;2023-05-02T15:11:13;4.90;;;1.10;;
77018;SDS011;66044;53.142;17.962;2023-05-02T15:13:39;4.90;;;1.20;;
77018;SDS011;66044;53.142;17.962;2023-05-02T15:16:06;4.00;;;1.00;;
77018;SDS011;66044;53.142;17.962;2023-05-02T15:18:32;5.00;;;1.20;;
77018;SDS011;66044;53.142;17.962;2023-05-02T15:20:59;4.60;;;1.20;;
77018;SDS011;66044;53.142;17.962;2023-05-02T15:23:25;4.80;;;1.20;;